createdAt,value
2019-01-10T00:00:52.064Z,1013.09
2019-01-10T00:01:52.051Z,1013.03
2019-01-10T00:02:52.040Z,1013.06
2019-01-10T00:03:52.028Z,1013.01
2019-01-10T00:04:52.019Z,1013.09
2019-01-10T00:05:52.007Z,1013.14
2019-01-10T00:06:52.000Z,1013.08
2019-01-10T00:07:51.988Z,1013.13
2019-01-10T00:08:51.975Z,1013.14
2019-01-10T00:09:51.964Z,1013.12
2019-01-10T00:10:51.957Z,1013.08
2019-01-10T00:11:51.942Z,1013.21
2019-01-10T00:12:51.935Z,1013.14
2019-01-10T00:13:51.920Z,1013.17
2019-01-10T00:14:51.908Z,1013.18
2019-01-10T00:15:51.899Z,1013.19
2019-01-10T00:16:51.889Z,1013.06
2019-01-10T00:17:51.877Z,1013.19
2019-01-10T00:18:51.865Z,1013.20
2019-01-10T00:19:51.854Z,1013.21
2019-01-10T00:20:51.843Z,1013.26
2019-01-10T00:21:51.833Z,1013.15
2019-01-10T00:22:51.819Z,1013.31
2019-01-10T00:23:51.810Z,1013.29
2019-01-10T00:24:51.800Z,1013.28
2019-01-10T00:25:51.790Z,1013.37
2019-01-10T00:26:51.778Z,1013.31
2019-01-10T00:27:51.771Z,1013.32
2019-01-10T00:38:04.289Z,1013.34
2019-01-10T00:41:49.796Z,1013.40
2019-01-10T00:42:50.057Z,1013.38
2019-01-10T00:44:43.147Z,1013.46
2019-01-10T00:45:43.133Z,1013.43
2019-01-10T00:47:36.531Z,1013.49
2019-01-10T00:48:36.510Z,1013.50
2019-01-10T00:49:36.500Z,1013.49
2019-01-10T00:50:36.486Z,1013.55
2019-01-10T00:51:36.475Z,1013.55
2019-01-10T00:52:36.465Z,1013.59
2019-01-10T00:53:36.457Z,1013.57
2019-01-10T00:54:36.443Z,1013.60
2019-01-10T00:55:36.433Z,1013.61
2019-01-10T00:56:36.426Z,1013.57
2019-01-10T00:57:36.410Z,1013.60
2019-01-10T00:58:36.397Z,1013.57
2019-01-10T00:59:36.393Z,1013.60
2019-01-10T01:00:36.379Z,1013.58
2019-01-10T01:01:36.364Z,1013.62
2019-01-10T01:02:36.354Z,1013.63
2019-01-10T01:03:36.344Z,1013.64
2019-01-10T01:04:36.335Z,1013.63
2019-01-10T01:05:36.321Z,1013.64
2019-01-10T01:06:36.310Z,1013.69
2019-01-10T01:07:36.301Z,1013.77
2019-01-10T01:08:36.291Z,1013.81
2019-01-10T01:09:36.280Z,1013.70
2019-01-10T01:10:36.265Z,1013.73
2019-01-10T01:11:36.257Z,1013.71
2019-01-10T01:12:36.245Z,1013.75
2019-01-10T01:13:36.234Z,1013.77
2019-01-10T01:14:36.228Z,1013.86
2019-01-10T01:15:36.213Z,1013.89
2019-01-10T01:16:36.202Z,1013.91
2019-01-10T01:17:36.188Z,1013.96
2019-01-10T01:18:36.180Z,1013.93
2019-01-10T01:19:36.171Z,1013.89
2019-01-10T01:20:36.156Z,1013.95
2019-01-10T01:21:36.146Z,1013.94
2019-01-10T01:22:36.136Z,1013.96
2019-01-10T01:23:36.125Z,1013.94
2019-01-10T01:24:36.111Z,1014.01
2019-01-10T01:25:36.103Z,1013.98
2019-01-10T01:26:36.093Z,1014.01
2019-01-10T01:27:36.083Z,1014.06
2019-01-10T01:28:36.069Z,1014.05
2019-01-10T01:29:36.060Z,1014.01
2019-01-10T01:30:36.048Z,1014.08
2019-01-10T01:31:36.036Z,1013.99
2019-01-10T01:32:36.026Z,1014.16
2019-01-10T01:33:36.017Z,1014.09
2019-01-10T01:34:36.003Z,1014.10
2019-01-10T01:35:35.991Z,1014.18
2019-01-10T01:36:35.977Z,1014.18
2019-01-10T01:37:35.973Z,1014.20
2019-01-10T01:38:35.959Z,1014.20
2019-01-10T01:39:35.946Z,1014.18
2019-01-10T01:40:35.939Z,1014.26
2019-01-10T01:41:35.925Z,1014.29
2019-01-10T01:42:35.913Z,1014.26
2019-01-10T01:43:35.903Z,1014.23
2019-01-10T01:44:35.903Z,1014.30
2019-01-10T01:45:35.881Z,1014.38
2019-01-10T01:46:35.870Z,1014.32
2019-01-10T01:47:35.862Z,1014.40
2019-01-10T01:48:35.849Z,1014.41
2019-01-10T01:49:35.836Z,1014.43
2019-01-10T01:50:35.832Z,1014.46
2019-01-10T01:51:35.814Z,1014.46
2019-01-10T01:52:35.803Z,1014.47
2019-01-10T01:53:35.794Z,1014.52
2019-01-10T01:54:35.783Z,1014.57
2019-01-10T01:55:35.773Z,1014.57
2019-01-10T01:56:35.763Z,1014.55
2019-01-10T01:57:35.748Z,1014.59
2019-01-10T01:58:35.737Z,1014.60
2019-01-10T01:59:35.726Z,1014.61
2019-01-10T02:00:35.716Z,1014.58
2019-01-10T02:01:35.704Z,1014.61
2019-01-10T02:02:35.694Z,1014.66
2019-01-10T02:03:35.683Z,1014.69
2019-01-10T02:04:35.672Z,1014.66
2019-01-10T02:05:35.666Z,1014.71
2019-01-10T02:06:35.649Z,1014.72
2019-01-10T02:07:35.638Z,1014.71
2019-01-10T02:08:35.629Z,1014.71
2019-01-10T02:09:35.616Z,1014.77
2019-01-10T02:10:35.606Z,1014.71
2019-01-10T02:11:35.595Z,1014.74
2019-01-10T02:12:35.700Z,1014.80
2019-01-10T02:13:35.572Z,1014.78
2019-01-10T02:14:35.562Z,1014.76
2019-01-10T02:15:35.550Z,1014.76
2019-01-10T02:16:35.536Z,1014.78
2019-01-10T02:17:35.528Z,1014.79
2019-01-10T02:18:35.518Z,1014.78
2019-01-10T02:19:35.506Z,1014.81
2019-01-10T02:20:35.516Z,1014.80
2019-01-10T02:21:35.482Z,1014.81
2019-01-10T02:22:35.473Z,1014.77
2019-01-10T02:23:35.462Z,1014.81
2019-01-10T02:24:35.452Z,1014.85
2019-01-10T02:25:35.440Z,1014.85
2019-01-10T02:26:35.428Z,1014.86
2019-01-10T02:27:35.416Z,1014.85
2019-01-10T02:28:35.408Z,1014.90
2019-01-10T02:29:35.400Z,1014.81
2019-01-10T02:30:41.825Z,1014.86
2019-01-10T02:31:35.374Z,1014.89
2019-01-10T02:32:35.361Z,1014.90
2019-01-10T02:33:35.351Z,1015.00
2019-01-10T02:34:35.340Z,1015.01
2019-01-10T02:35:35.330Z,1014.93
2019-01-10T02:36:35.320Z,1014.97
2019-01-10T02:37:35.308Z,1014.92
2019-01-10T02:38:35.294Z,1014.99
2019-01-10T02:39:35.283Z,1014.97
2019-01-10T02:40:35.275Z,1014.99
2019-01-10T02:41:35.263Z,1015.03
2019-01-10T02:42:35.249Z,1015.00
2019-01-10T02:43:35.239Z,1015.05
2019-01-10T02:44:35.232Z,1015.05
2019-01-10T02:45:35.218Z,1015.05
2019-01-10T02:46:35.208Z,1015.06
2019-01-10T02:47:35.197Z,1015.03
2019-01-10T02:48:35.189Z,1015.08
2019-01-10T02:49:35.174Z,1015.02
2019-01-10T02:50:35.165Z,1015.08
2019-01-10T02:51:35.152Z,1015.08
2019-01-10T02:52:35.141Z,1015.08
2019-01-10T02:53:35.129Z,1015.10
2019-01-10T02:54:35.121Z,1015.08
2019-01-10T02:55:35.109Z,1015.11
2019-01-10T02:56:35.097Z,1015.15
2019-01-10T02:57:35.087Z,1015.14
2019-01-10T02:58:35.076Z,1015.11
2019-01-10T02:59:35.064Z,1015.10
2019-01-10T03:00:35.056Z,1015.11
2019-01-10T03:01:35.044Z,1015.12
2019-01-10T03:02:35.029Z,1015.21
2019-01-10T03:03:35.017Z,1015.18
2019-01-10T03:04:35.009Z,1015.19
2019-01-10T03:05:34.995Z,1015.17
2019-01-10T03:06:34.983Z,1015.21
2019-01-10T03:07:34.975Z,1015.20
2019-01-10T03:08:34.966Z,1015.21
2019-01-10T03:09:34.954Z,1015.21
2019-01-10T03:10:34.943Z,1015.23
2019-01-10T03:11:34.930Z,1015.28
2019-01-10T03:12:34.921Z,1015.28
2019-01-10T03:13:36.977Z,1015.25
2019-01-10T03:14:34.896Z,1015.24
2019-01-10T03:15:34.886Z,1015.26
2019-01-10T03:16:34.879Z,1015.27
2019-01-10T03:17:34.867Z,1015.29
2019-01-10T03:18:34.852Z,1015.28
2019-01-10T03:19:34.841Z,1015.25
2019-01-10T03:20:34.832Z,1015.24
2019-01-10T03:21:34.817Z,1015.20
2019-01-10T03:22:34.810Z,1015.26
2019-01-10T03:23:34.792Z,1015.25
2019-01-10T03:24:34.785Z,1015.27
2019-01-10T03:25:34.793Z,1015.28
2019-01-10T03:26:34.766Z,1015.27
2019-01-10T03:27:34.755Z,1015.32
2019-01-10T03:28:34.742Z,1015.30
2019-01-10T03:29:34.730Z,1015.24
2019-01-10T03:30:34.741Z,1015.29
2019-01-10T03:31:34.723Z,1015.25
2019-01-10T03:32:34.717Z,1015.26
2019-01-10T03:33:34.689Z,1015.26
2019-01-10T03:34:34.672Z,1015.32
2019-01-10T03:35:34.662Z,1015.31
2019-01-10T03:36:34.655Z,1015.35
2019-01-10T03:37:34.648Z,1015.33
2019-01-10T03:38:34.628Z,1015.36
2019-01-10T03:39:34.620Z,1015.36
2019-01-10T03:40:34.607Z,1015.35
2019-01-10T03:41:34.595Z,1015.31
2019-01-10T03:42:34.580Z,1015.35
2019-01-10T03:43:34.577Z,1015.38
2019-01-10T03:44:34.800Z,1015.32
2019-01-10T03:45:34.549Z,1015.35
2019-01-10T03:46:34.561Z,1015.38
2019-01-10T03:47:34.527Z,1015.36
2019-01-10T03:48:34.528Z,1015.31
2019-01-10T03:49:34.511Z,1015.35
2019-01-10T03:50:34.504Z,1015.37
2019-01-10T03:51:34.485Z,1015.36
2019-01-10T03:52:34.474Z,1015.38
2019-01-10T03:53:34.463Z,1015.46
2019-01-10T03:54:34.465Z,1015.42
2019-01-10T03:55:34.446Z,1015.45
2019-01-10T03:56:34.431Z,1015.39
2019-01-10T03:57:34.419Z,1015.37
2019-01-10T03:58:34.407Z,1015.43
2019-01-10T03:59:34.398Z,1015.43
2019-01-10T04:00:34.386Z,1015.46
2019-01-10T04:01:34.374Z,1015.37
2019-01-10T04:02:34.362Z,1015.42
2019-01-10T04:03:34.351Z,1015.44
2019-01-10T04:04:34.344Z,1015.43
2019-01-10T04:05:34.337Z,1015.42
2019-01-10T04:06:34.323Z,1015.45
2019-01-10T04:07:34.338Z,1015.43
2019-01-10T04:08:34.297Z,1015.40
2019-01-10T04:09:34.287Z,1015.49
2019-01-10T04:10:34.272Z,1015.43
2019-01-10T04:11:34.262Z,1015.45
2019-01-10T04:12:34.254Z,1015.47
2019-01-10T04:13:34.238Z,1015.50
2019-01-10T04:14:34.230Z,1015.52
2019-01-10T04:15:34.220Z,1015.48
2019-01-10T04:16:34.209Z,1015.52
2019-01-10T04:17:34.191Z,1015.48
2019-01-10T04:18:34.176Z,1015.52
2019-01-10T04:19:34.170Z,1015.41
2019-01-10T04:20:34.161Z,1015.57
2019-01-10T04:21:34.147Z,1015.64
2019-01-10T04:22:34.138Z,1015.62
2019-01-10T04:23:34.130Z,1015.66
2019-01-10T04:24:34.119Z,1015.66
2019-01-10T04:25:34.104Z,1015.63
2019-01-10T04:26:34.092Z,1015.67
2019-01-10T04:27:34.079Z,1015.68
2019-01-10T04:28:34.077Z,1015.71
2019-01-10T04:29:34.064Z,1015.70
2019-01-10T04:30:34.048Z,1015.71
2019-01-10T04:31:34.033Z,1015.63
2019-01-10T04:32:34.024Z,1015.69
2019-01-10T04:33:34.013Z,1015.72
2019-01-10T04:34:34.002Z,1015.73
2019-01-10T04:35:33.990Z,1015.69
2019-01-10T04:36:33.982Z,1015.69
2019-01-10T04:37:33.968Z,1015.68
2019-01-10T04:38:33.957Z,1015.70
2019-01-10T04:39:33.948Z,1015.71
2019-01-10T04:40:33.934Z,1015.69
2019-01-10T04:41:33.927Z,1015.75
2019-01-10T04:42:33.911Z,1015.74
2019-01-10T04:43:33.901Z,1015.72
2019-01-10T04:44:33.891Z,1015.77
2019-01-10T04:45:33.879Z,1015.73
2019-01-10T04:46:33.871Z,1015.78
2019-01-10T04:47:33.859Z,1015.80
2019-01-10T04:48:33.847Z,1015.82
2019-01-10T04:49:33.915Z,1015.79
2019-01-10T04:50:33.819Z,1015.82
2019-01-10T04:51:33.808Z,1015.80
2019-01-10T04:52:33.800Z,1015.83
2019-01-10T04:53:33.789Z,1015.82
2019-01-10T04:54:38.196Z,1015.81
2019-01-10T04:55:33.763Z,1015.84
2019-01-10T04:56:33.754Z,1015.81
2019-01-10T04:57:33.740Z,1015.84
2019-01-10T04:58:33.728Z,1015.87
2019-01-10T04:59:33.720Z,1015.84
2019-01-10T05:00:33.707Z,1015.81
2019-01-10T05:01:33.696Z,1015.89
2019-01-10T05:02:33.683Z,1015.93
2019-01-10T05:03:33.676Z,1015.90
2019-01-10T05:04:33.663Z,1015.96
2019-01-10T05:05:33.660Z,1015.92
2019-01-10T05:06:33.643Z,1015.96
2019-01-10T05:07:33.628Z,1015.93
2019-01-10T05:08:33.616Z,1015.95
2019-01-10T05:09:33.605Z,1015.95
2019-01-10T05:10:33.600Z,1015.99
2019-01-10T05:11:33.581Z,1016.02
2019-01-10T05:12:33.574Z,1016.04
2019-01-10T05:13:33.560Z,1015.98
2019-01-10T05:14:33.549Z,1016.00
2019-01-10T05:15:33.534Z,1016.05
2019-01-10T05:16:33.528Z,1016.06
2019-01-10T05:17:33.513Z,1016.05
2019-01-10T05:18:33.507Z,1016.09
2019-01-10T05:19:33.491Z,1016.08
2019-01-10T05:20:33.480Z,1016.11
2019-01-10T05:21:33.468Z,1016.10
2019-01-10T05:22:33.461Z,1016.13
2019-01-10T05:23:33.445Z,1016.15
2019-01-10T05:24:33.434Z,1016.17
2019-01-10T05:25:33.431Z,1016.24
2019-01-10T05:26:33.413Z,1016.13
2019-01-10T05:27:33.399Z,1016.19
2019-01-10T05:28:33.390Z,1016.25
2019-01-10T05:29:33.377Z,1016.27
2019-01-10T05:30:33.371Z,1016.28
2019-01-10T05:31:33.361Z,1016.31
2019-01-10T05:32:33.344Z,1016.25
2019-01-10T05:33:33.330Z,1016.32
2019-01-10T05:34:33.322Z,1016.35
2019-01-10T05:35:33.310Z,1016.34
2019-01-10T05:36:33.298Z,1016.30
2019-01-10T05:37:33.288Z,1016.37
2019-01-10T05:38:33.266Z,1016.43
2019-01-10T05:39:33.263Z,1016.35
2019-01-10T05:40:33.254Z,1016.33
2019-01-10T05:41:33.240Z,1016.23
2019-01-10T05:42:33.230Z,1016.40
2019-01-10T05:43:33.234Z,1016.39
2019-01-10T05:44:33.243Z,1016.37
2019-01-10T05:45:33.195Z,1016.38
2019-01-10T05:46:33.192Z,1016.40
2019-01-10T05:47:33.174Z,1016.42
2019-01-10T05:48:33.165Z,1016.40
2019-01-10T05:49:33.154Z,1016.38
2019-01-10T05:50:33.136Z,1016.44
2019-01-10T05:51:33.134Z,1016.47
2019-01-10T05:52:33.112Z,1016.45
2019-01-10T05:53:33.108Z,1016.45
2019-01-10T05:54:33.091Z,1016.48
2019-01-10T05:55:33.080Z,1016.49
2019-01-10T05:56:33.068Z,1016.51
2019-01-10T05:57:33.056Z,1016.52
2019-01-10T05:58:33.044Z,1016.53
2019-01-10T05:59:33.034Z,1016.52
2019-01-10T06:00:33.023Z,1016.51
2019-01-10T06:01:33.013Z,1016.56
2019-01-10T06:02:33.001Z,1016.64
2019-01-10T06:03:32.989Z,1016.66
2019-01-10T06:04:32.978Z,1016.63
2019-01-10T06:05:32.965Z,1016.68
2019-01-10T06:06:32.954Z,1016.63
2019-01-10T06:07:32.942Z,1016.67
2019-01-10T06:08:32.932Z,1016.65
2019-01-10T06:09:32.919Z,1016.63
2019-01-10T06:10:32.909Z,1016.68
2019-01-10T06:11:32.898Z,1016.69
2019-01-10T06:12:32.887Z,1016.75
2019-01-10T06:13:32.876Z,1016.70
2019-01-10T06:14:35.728Z,1016.74
2019-01-10T06:15:32.852Z,1016.77
2019-01-10T06:16:32.840Z,1016.77
2019-01-10T06:17:32.829Z,1016.83
2019-01-10T06:18:32.818Z,1016.82
2019-01-10T06:19:32.809Z,1016.84
2019-01-10T06:20:32.796Z,1016.85
2019-01-10T06:21:32.783Z,1016.88
2019-01-10T06:22:32.772Z,1016.90
2019-01-10T06:23:32.759Z,1016.90
2019-01-10T06:24:32.747Z,1016.93
2019-01-10T06:25:32.739Z,1016.89
2019-01-10T06:26:32.725Z,1016.93
2019-01-10T06:27:32.715Z,1016.91
2019-01-10T06:28:32.702Z,1016.93
2019-01-10T06:29:32.692Z,1016.87
2019-01-10T06:30:32.677Z,1016.92
2019-01-10T06:31:32.665Z,1016.94
2019-01-10T06:32:32.658Z,1016.95
2019-01-10T06:33:32.649Z,1017.00
2019-01-10T06:34:32.634Z,1016.97
2019-01-10T06:35:32.622Z,1016.98
2019-01-10T06:36:32.618Z,1017.01
2019-01-10T06:37:32.599Z,1017.02
2019-01-10T06:38:32.589Z,1017.00
2019-01-10T06:39:32.576Z,1017.02
2019-01-10T06:40:32.566Z,1017.05
2019-01-10T06:41:32.554Z,1017.05
2019-01-10T06:42:32.541Z,1017.07
2019-01-10T06:43:32.532Z,1017.03
2019-01-10T06:44:32.519Z,1016.89
2019-01-10T06:45:32.505Z,1017.10
2019-01-10T06:46:32.498Z,1017.08
2019-01-10T06:47:32.482Z,1017.02
2019-01-10T06:48:32.473Z,1017.09
2019-01-10T06:49:32.458Z,1017.15
2019-01-10T06:50:32.446Z,1017.13
2019-01-10T06:51:32.440Z,1017.09
2019-01-10T06:52:32.427Z,1017.14
2019-01-10T06:53:32.418Z,1017.11
2019-01-10T06:54:32.404Z,1017.09
2019-01-10T06:55:32.390Z,1017.10
2019-01-10T06:56:32.377Z,1017.14
2019-01-10T06:57:32.364Z,1017.12
2019-01-10T06:58:32.355Z,1017.14
2019-01-10T06:59:32.343Z,1017.25
2019-01-10T07:00:32.334Z,1017.15
2019-01-10T07:01:32.322Z,1017.15
2019-01-10T07:02:32.310Z,1017.16
2019-01-10T07:03:32.300Z,1017.14
2019-01-10T07:04:32.289Z,1017.15
2019-01-10T07:05:32.274Z,1017.14
2019-01-10T07:06:32.263Z,1017.17
2019-01-10T07:07:32.252Z,1017.19
2019-01-10T07:08:32.239Z,1017.22
2019-01-10T07:09:32.226Z,1017.23
2019-01-10T07:10:32.221Z,1017.26
2019-01-10T07:11:32.209Z,1017.26
2019-01-10T07:12:32.190Z,1017.30
2019-01-10T07:13:32.187Z,1017.29
2019-01-10T07:14:32.167Z,1017.29
2019-01-10T07:15:32.157Z,1017.29
2019-01-10T07:16:32.148Z,1017.27
2019-01-10T07:17:32.133Z,1017.33
2019-01-10T07:18:32.123Z,1017.31
2019-01-10T07:19:32.111Z,1017.34
2019-01-10T07:20:32.101Z,1017.29
2019-01-10T07:21:32.086Z,1017.29
2019-01-10T07:22:32.076Z,1017.27
2019-01-10T07:23:32.063Z,1017.32
2019-01-10T07:24:32.055Z,1017.30
2019-01-10T07:25:32.035Z,1017.30
2019-01-10T07:26:32.029Z,1017.33
2019-01-10T07:27:32.015Z,1017.33
2019-01-10T07:28:32.003Z,1017.36
2019-01-10T07:29:31.992Z,1017.39
2019-01-10T07:30:36.287Z,1017.38
2019-01-10T07:31:31.968Z,1017.42
2019-01-10T07:32:31.970Z,1017.37
2019-01-10T07:33:32.262Z,1017.38
2019-01-10T07:34:31.932Z,1017.42
2019-01-10T07:35:31.919Z,1017.46
2019-01-10T07:36:31.908Z,1017.43
2019-01-10T07:37:31.901Z,1017.43
2019-01-10T07:38:31.887Z,1017.51
2019-01-10T07:39:31.876Z,1017.56
2019-01-10T07:40:31.864Z,1017.53
2019-01-10T07:41:31.848Z,1017.56
2019-01-10T07:42:31.837Z,1017.57
2019-01-10T07:43:31.827Z,1017.56
2019-01-10T07:44:31.819Z,1017.60
2019-01-10T07:45:31.792Z,1017.57
2019-01-10T07:46:32.259Z,1017.61
2019-01-10T07:47:31.777Z,1017.60
2019-01-10T07:48:31.769Z,1017.64
2019-01-10T07:49:31.751Z,1017.60
2019-01-10T07:50:31.741Z,1017.66
2019-01-10T07:51:31.736Z,1017.70
2019-01-10T07:52:31.723Z,1017.72
2019-01-10T07:53:31.705Z,1017.69
2019-01-10T07:54:31.693Z,1017.72
2019-01-10T07:55:31.682Z,1017.79
2019-01-10T07:56:31.674Z,1017.81
2019-01-10T07:57:31.659Z,1017.83
2019-01-10T07:58:31.649Z,1017.85
2019-01-10T07:59:31.635Z,1017.85
2019-01-10T08:00:31.624Z,1017.88
2019-01-10T08:01:31.614Z,1017.88
2019-01-10T08:02:31.599Z,1017.86
2019-01-10T08:03:31.587Z,1017.91
2019-01-10T08:04:31.575Z,1017.89
2019-01-10T08:05:31.564Z,1017.94
2019-01-10T08:06:31.552Z,1017.95
2019-01-10T08:07:31.543Z,1017.97
2019-01-10T08:08:31.529Z,1017.98
2019-01-10T08:09:31.514Z,1017.98
2019-01-10T08:10:31.507Z,1018.00
2019-01-10T08:11:31.493Z,1018.02
2019-01-10T08:12:31.484Z,1018.05
2019-01-10T08:13:31.473Z,1018.07
2019-01-10T08:14:31.461Z,1018.11
2019-01-10T08:15:31.448Z,1018.07
2019-01-10T08:16:31.436Z,1018.16
2019-01-10T08:17:31.426Z,1018.18
2019-01-10T08:18:31.410Z,1018.12
2019-01-10T08:19:31.437Z,1018.17
2019-01-10T08:20:31.391Z,1018.17
2019-01-10T08:21:31.372Z,1018.23
2019-01-10T08:22:31.364Z,1018.23
2019-01-10T08:23:31.353Z,1018.25
2019-01-10T08:24:31.411Z,1018.22
2019-01-10T08:25:31.331Z,1018.30
2019-01-10T08:26:31.401Z,1018.27
2019-01-10T08:27:31.308Z,1018.30
2019-01-10T08:28:31.301Z,1018.23
2019-01-10T08:29:33.489Z,1018.25
2019-01-10T08:30:31.272Z,1018.31
2019-01-10T08:31:31.266Z,1018.27
2019-01-10T08:32:31.250Z,1018.31
2019-01-10T08:33:31.238Z,1018.30
2019-01-10T08:34:31.227Z,1018.34
2019-01-10T08:35:31.215Z,1018.36
2019-01-10T08:36:32.575Z,1018.40
2019-01-10T08:37:31.195Z,1018.38
2019-01-10T08:38:31.266Z,1018.41
2019-01-10T08:39:31.171Z,1018.41
2019-01-10T08:40:31.163Z,1018.41
2019-01-10T08:41:31.148Z,1018.41
2019-01-10T08:42:31.136Z,1018.39
2019-01-10T08:43:31.128Z,1018.38
2019-01-10T08:44:31.157Z,1018.33
2019-01-10T08:45:31.099Z,1018.40
2019-01-10T08:46:31.136Z,1018.38
2019-01-10T08:47:31.084Z,1018.43
2019-01-10T08:48:31.067Z,1018.42
2019-01-10T08:49:31.052Z,1018.44
2019-01-10T08:50:31.041Z,1018.40
2019-01-10T08:51:31.032Z,1018.42
2019-01-10T08:52:31.026Z,1018.46
2019-01-10T08:53:31.010Z,1018.47
2019-01-10T08:54:31.002Z,1018.48
2019-01-10T08:55:30.986Z,1018.50
2019-01-10T08:56:30.974Z,1018.51
2019-01-10T08:57:30.964Z,1018.55
2019-01-10T08:58:30.950Z,1018.53
2019-01-10T08:59:30.942Z,1018.54
2019-01-10T09:00:30.927Z,1018.53
2019-01-10T09:01:30.916Z,1018.55
2019-01-10T09:02:30.907Z,1018.54
2019-01-10T09:03:30.894Z,1018.65
2019-01-10T09:04:30.885Z,1018.61
2019-01-10T09:05:30.873Z,1018.59
2019-01-10T09:06:30.865Z,1018.58
2019-01-10T09:08:16.014Z,1018.64
2019-01-10T09:09:24.237Z,1018.64
2019-01-10T09:10:24.221Z,1018.67
2019-01-10T09:12:17.597Z,1018.70
2019-01-10T09:13:17.573Z,1018.71
2019-01-10T09:14:17.565Z,1018.74
2019-01-10T09:15:23.307Z,1018.71
2019-01-10T09:16:17.540Z,1018.77
2019-01-10T09:17:17.533Z,1018.72
2019-01-10T09:18:17.520Z,1018.75
2019-01-10T09:19:17.509Z,1018.72
2019-01-10T09:20:17.495Z,1018.71
2019-01-10T09:21:17.480Z,1018.75
2019-01-10T09:22:17.474Z,1018.70
2019-01-10T09:23:17.461Z,1018.79
2019-01-10T09:24:17.448Z,1018.78
2019-01-10T09:25:17.877Z,1018.78
2019-01-10T09:26:17.431Z,1018.83
2019-01-10T09:27:17.415Z,1018.76
2019-01-10T09:28:17.408Z,1018.80
2019-01-10T09:29:17.393Z,1018.85
2019-01-10T09:30:17.383Z,1018.84
2019-01-10T09:31:17.370Z,1018.90
2019-01-10T09:32:17.372Z,1018.85
2019-01-10T09:33:17.347Z,1018.81
2019-01-10T09:34:24.589Z,1018.88
2019-01-10T09:35:17.339Z,1018.87
2019-01-10T09:36:17.315Z,1018.85
2019-01-10T09:37:17.304Z,1018.87
2019-01-10T09:38:17.292Z,1018.81
2019-01-10T09:39:17.283Z,1018.85
2019-01-10T09:40:17.271Z,1018.86
2019-01-10T09:41:17.256Z,1018.86
2019-01-10T09:42:17.248Z,1018.90
2019-01-10T09:43:17.236Z,1018.89
2019-01-10T09:44:17.218Z,1018.92
2019-01-10T09:45:17.211Z,1018.88
2019-01-10T09:46:17.262Z,1018.98
2019-01-10T09:47:17.189Z,1018.94
2019-01-10T09:48:17.177Z,1018.97
2019-01-10T09:49:17.168Z,1018.96
2019-01-10T09:50:17.159Z,1018.97
2019-01-10T09:51:17.147Z,1018.99
2019-01-10T09:52:17.138Z,1019.02
2019-01-10T09:53:17.127Z,1018.99
2019-01-10T09:54:17.113Z,1018.98
2019-01-10T09:55:17.098Z,1019.01
2019-01-10T09:56:17.091Z,1018.99
2019-01-10T09:57:17.073Z,1018.97
2019-01-10T09:58:17.067Z,1019.02
2019-01-10T09:59:17.052Z,1019.02
2019-01-10T10:00:17.041Z,1019.02
2019-01-10T10:01:17.024Z,1019.02
2019-01-10T10:02:17.019Z,1019.05
2019-01-10T10:03:17.010Z,1019.08
2019-01-10T10:04:17.009Z,1019.07
2019-01-10T10:05:16.986Z,1019.03
2019-01-10T10:06:16.971Z,1019.07
2019-01-10T10:07:16.962Z,1019.09
2019-01-10T10:08:16.951Z,1019.08
2019-01-10T10:09:16.942Z,1019.10
2019-01-10T10:10:16.932Z,1019.07
2019-01-10T10:11:16.916Z,1019.07
2019-01-10T10:12:16.906Z,1019.08
2019-01-10T10:13:16.896Z,1019.06
2019-01-10T10:14:16.881Z,1019.05
2019-01-10T10:15:16.872Z,1019.10
2019-01-10T10:16:16.859Z,1019.06
2019-01-10T10:17:16.848Z,1019.05
2019-01-10T10:18:16.839Z,1019.06
2019-01-10T10:19:16.823Z,1018.99
2019-01-10T10:20:16.849Z,1019.03
2019-01-10T10:21:16.805Z,1019.08
2019-01-10T10:22:16.791Z,1019.08
2019-01-10T10:23:16.781Z,1019.09
2019-01-10T10:24:16.767Z,1019.11
2019-01-10T10:25:16.759Z,1019.09
2019-01-10T10:26:16.747Z,1019.09
2019-01-10T10:27:16.739Z,1019.05
2019-01-10T10:28:16.723Z,1019.13
2019-01-10T10:29:16.710Z,1019.13
2019-01-10T10:30:16.711Z,1019.16
2019-01-10T10:31:16.688Z,1018.98
2019-01-10T10:32:16.679Z,1019.10
2019-01-10T10:33:16.670Z,1019.07
2019-01-10T10:34:16.656Z,1019.08
2019-01-10T10:35:16.646Z,1019.08
2019-01-10T10:36:16.633Z,1019.08
2019-01-10T10:37:16.622Z,1019.06
2019-01-10T10:38:16.611Z,1019.01
2019-01-10T10:39:16.607Z,1019.03
2019-01-10T10:40:16.591Z,1019.06
2019-01-10T10:41:16.582Z,1018.99
2019-01-10T10:42:16.570Z,1019.05
2019-01-10T10:43:16.556Z,1019.05
2019-01-10T10:44:16.544Z,1019.04
2019-01-10T10:45:16.535Z,1019.04
2019-01-10T10:46:16.522Z,1019.04
2019-01-10T10:47:16.515Z,1019.03
2019-01-10T10:48:16.501Z,1019.04
2019-01-10T10:49:16.491Z,1019.02
2019-01-10T10:50:16.482Z,1019.06
2019-01-10T10:51:16.474Z,1019.09
2019-01-10T10:52:16.458Z,1019.10
2019-01-10T10:53:16.447Z,1019.08
2019-01-10T10:54:16.437Z,1019.10
2019-01-10T10:55:16.430Z,1019.07
2019-01-10T10:56:16.425Z,1019.04
2019-01-10T10:57:16.402Z,1019.11
2019-01-10T10:58:16.393Z,1019.11
2019-01-10T10:59:16.386Z,1019.08
2019-01-10T11:00:16.370Z,1019.09
2019-01-10T11:01:16.361Z,1019.05
2019-01-10T11:02:16.350Z,1019.05
2019-01-10T11:03:16.339Z,1019.08
2019-01-10T11:04:16.329Z,1019.07
2019-01-10T11:05:16.315Z,1019.04
2019-01-10T11:06:16.308Z,1018.97
2019-01-10T11:07:16.297Z,1019.07
2019-01-10T11:08:16.285Z,1019.04
2019-01-10T11:09:16.274Z,1019.06
2019-01-10T11:10:16.266Z,1019.04
2019-01-10T11:11:16.255Z,1019.05
2019-01-10T11:12:16.245Z,1019.03
2019-01-10T11:13:16.229Z,1019.02
2019-01-10T11:14:16.220Z,1018.97
2019-01-10T11:15:16.205Z,1019.01
2019-01-10T11:16:16.196Z,1018.97
2019-01-10T11:17:16.187Z,1018.96
2019-01-10T11:18:16.181Z,1019.00
2019-01-10T11:19:16.162Z,1018.95
2019-01-10T11:20:16.157Z,1018.96
2019-01-10T11:21:16.143Z,1018.99
2019-01-10T11:22:16.132Z,1018.95
2019-01-10T11:23:16.121Z,1018.97
2019-01-10T11:24:16.117Z,1018.95
2019-01-10T11:25:16.100Z,1018.97
2019-01-10T11:26:16.094Z,1018.92
2019-01-10T11:27:16.080Z,1018.98
2019-01-10T11:28:16.071Z,1018.93
2019-01-10T11:29:16.061Z,1018.87
2019-01-10T11:30:16.051Z,1018.87
2019-01-10T11:31:16.040Z,1018.89
2019-01-10T11:32:16.030Z,1018.93
2019-01-10T11:33:16.017Z,1018.94
2019-01-10T11:34:16.006Z,1018.89
2019-01-10T11:35:15.996Z,1018.88
2019-01-10T11:36:15.992Z,1018.87
2019-01-10T11:37:15.980Z,1018.88
2019-01-10T11:38:15.960Z,1018.81
2019-01-10T11:39:15.951Z,1018.78
2019-01-10T11:40:15.943Z,1018.81
2019-01-10T11:41:15.928Z,1018.86
2019-01-10T11:42:15.920Z,1018.89
2019-01-10T11:43:15.910Z,1018.84
2019-01-10T11:44:15.894Z,1018.86
2019-01-10T11:45:15.888Z,1018.86
2019-01-10T11:46:19.788Z,1018.92
2019-01-10T11:47:15.866Z,1018.85
2019-01-10T11:48:15.855Z,1018.82
2019-01-10T11:49:15.844Z,1018.83
2019-01-10T11:50:15.835Z,1018.83
2019-01-10T11:51:15.818Z,1018.82
2019-01-10T11:52:15.808Z,1018.82
2019-01-10T11:53:15.799Z,1018.85
2019-01-10T11:54:15.799Z,1018.79
2019-01-10T11:55:15.779Z,1018.75
2019-01-10T11:56:15.770Z,1018.75
2019-01-10T11:57:15.756Z,1018.74
2019-01-10T11:58:15.748Z,1018.80
2019-01-10T11:59:15.733Z,1018.76
2019-01-10T12:00:15.724Z,1018.72
2019-01-10T12:01:15.714Z,1018.71
2019-01-10T12:02:15.704Z,1018.77
2019-01-10T12:03:15.701Z,1018.75
2019-01-10T12:04:15.681Z,1018.75
2019-01-10T12:05:15.672Z,1018.76
2019-01-10T12:06:15.665Z,1018.74
2019-01-10T12:07:15.654Z,1018.74
2019-01-10T12:08:15.639Z,1018.70
2019-01-10T12:09:15.627Z,1018.72
2019-01-10T12:10:15.618Z,1018.67
2019-01-10T12:11:15.606Z,1018.72
2019-01-10T12:12:15.601Z,1018.66
2019-01-10T12:13:15.583Z,1018.65
2019-01-10T12:14:15.575Z,1018.68
2019-01-10T12:15:15.657Z,1018.64
2019-01-10T12:16:15.553Z,1018.68
2019-01-10T12:17:15.546Z,1018.64
2019-01-10T12:18:15.529Z,1018.67
2019-01-10T12:19:15.521Z,1018.65
2019-01-10T12:20:15.510Z,1018.72
2019-01-10T12:21:15.509Z,1018.71